createdAt,value
2022-11-16T00:00:17.592Z,3.63
2022-11-16T00:02:44.721Z,3.83
2022-11-16T00:05:11.836Z,4.07
2022-11-16T00:07:38.913Z,4.30
2022-11-16T00:10:06.275Z,3.87
2022-11-16T00:12:33.334Z,4.20
2022-11-16T00:15:00.395Z,4.13
2022-11-16T00:17:27.483Z,3.67
2022-11-16T00:19:54.606Z,3.93
2022-11-16T00:22:21.714Z,3.90
2022-11-16T00:24:48.796Z,4.20
2022-11-16T00:27:15.996Z,3.47
2022-11-16T00:29:43.049Z,3.63
2022-11-16T00:32:10.556Z,3.93
2022-11-16T00:34:37.662Z,3.90
2022-11-16T00:37:04.687Z,3.70
2022-11-16T00:39:31.795Z,3.63
2022-11-16T00:41:58.866Z,3.73
2022-11-16T00:44:25.934Z,3.70
2022-11-16T00:46:53.061Z,3.77
2022-11-16T00:49:20.141Z,3.53
2022-11-16T00:51:47.182Z,3.33
2022-11-16T00:54:14.251Z,3.13
2022-11-16T00:56:41.338Z,3.20
2022-11-16T00:59:08.557Z,3.33
2022-11-16T01:01:35.714Z,3.20
2022-11-16T01:04:02.817Z,3.67
2022-11-16T01:06:29.899Z,3.47
2022-11-16T01:08:56.968Z,3.43
2022-11-16T01:11:42.598Z,3.20
2022-11-16T01:14:10.160Z,3.10
2022-11-16T01:16:37.237Z,3.00
2022-11-16T01:19:04.965Z,3.27
2022-11-16T01:21:32.151Z,3.13
2022-11-16T01:23:59.200Z,3.27
2022-11-16T01:26:26.233Z,3.53
2022-11-16T01:28:53.444Z,3.30
2022-11-16T01:31:20.508Z,3.37
2022-11-16T01:33:47.626Z,3.30
2022-11-16T01:36:17.260Z,3.67
2022-11-16T01:38:45.619Z,3.43
2022-11-16T01:41:17.073Z,3.90
2022-11-16T01:43:55.413Z,3.43
2022-11-16T01:46:23.379Z,3.57
2022-11-16T01:48:53.963Z,3.53
2022-11-16T01:51:21.737Z,3.20
2022-11-16T01:53:48.820Z,3.47
2022-11-16T01:56:15.969Z,3.40
2022-11-16T01:58:43.078Z,3.87
2022-11-16T02:01:10.233Z,3.17
2022-11-16T02:03:38.325Z,3.27
2022-11-16T02:06:11.253Z,3.80
2022-11-16T02:09:11.798Z,4.00
2022-11-16T02:11:48.510Z,3.20
2022-11-16T02:14:15.526Z,3.40
2022-11-16T02:16:58.378Z,3.60
2022-11-16T02:19:31.645Z,3.57
2022-11-16T02:22:01.528Z,3.37
2022-11-16T02:24:34.413Z,3.63
2022-11-16T02:27:15.790Z,3.10
2022-11-16T02:29:48.181Z,3.57
2022-11-16T02:32:21.270Z,3.50
2022-11-16T02:34:53.391Z,3.60
2022-11-16T02:37:21.403Z,3.20
2022-11-16T02:39:49.878Z,3.50
2022-11-16T02:42:20.055Z,3.70
2022-11-16T02:44:48.513Z,3.63
2022-11-16T02:47:19.697Z,4.00
2022-11-16T02:49:49.187Z,3.13
2022-11-16T02:52:17.725Z,3.83
2022-11-16T02:54:44.808Z,3.60
2022-11-16T02:57:11.828Z,4.00
2022-11-16T02:59:41.890Z,3.90
2022-11-16T03:02:18.773Z,3.90
2022-11-16T03:05:05.117Z,3.23
2022-11-16T03:07:52.424Z,3.30
2022-11-16T03:10:39.428Z,3.43
2022-11-16T03:13:07.217Z,3.90
2022-11-16T03:15:37.243Z,3.60
2022-11-16T03:18:05.073Z,3.80
2022-11-16T03:20:33.061Z,3.70
2022-11-16T03:23:01.958Z,3.20
2022-11-16T03:25:32.227Z,3.47
2022-11-16T03:28:17.735Z,3.70
2022-11-16T03:30:49.031Z,3.37
2022-11-16T03:33:31.349Z,3.57
2022-11-16T03:35:58.417Z,3.60
2022-11-16T03:38:26.896Z,3.60
2022-11-16T03:40:56.789Z,3.87
2022-11-16T03:43:24.851Z,3.50
2022-11-16T03:45:51.894Z,3.90
2022-11-16T03:48:19.014Z,3.03
2022-11-16T03:50:46.241Z,3.80
2022-11-16T03:53:13.298Z,3.43
2022-11-16T03:55:41.188Z,3.57
2022-11-16T03:58:10.593Z,3.60
2022-11-16T04:00:37.717Z,3.50
2022-11-16T04:03:04.808Z,3.30
2022-11-16T04:05:50.434Z,3.63
2022-11-16T04:08:36.992Z,3.43
2022-11-16T04:11:22.883Z,3.53
2022-11-16T04:14:09.582Z,3.47
2022-11-16T04:16:55.486Z,2.93
2022-11-16T04:19:41.372Z,3.20
2022-11-16T04:22:31.604Z,3.43
2022-11-16T04:25:03.127Z,3.40
2022-11-16T04:27:50.397Z,3.77
2022-11-16T04:30:17.487Z,3.33
2022-11-16T04:33:03.278Z,3.27
2022-11-16T04:35:49.027Z,3.00
2022-11-16T04:38:16.107Z,2.63
2022-11-16T04:40:43.198Z,3.00
2022-11-16T04:43:10.275Z,2.87
2022-11-16T04:46:15.708Z,3.07
2022-11-16T04:48:42.809Z,2.93
2022-11-16T04:51:09.869Z,3.33
2022-11-16T04:53:36.969Z,3.10
2022-11-16T04:56:04.103Z,3.10
2022-11-16T04:58:31.456Z,2.93
2022-11-16T05:01:00.463Z,2.90
2022-11-16T05:03:27.545Z,2.83
2022-11-16T05:05:54.612Z,3.03
2022-11-16T05:08:21.673Z,3.33
2022-11-16T05:10:51.219Z,2.77
2022-11-16T05:13:18.259Z,2.87
2022-11-16T05:15:48.403Z,2.77
2022-11-16T05:18:15.474Z,2.87
2022-11-16T05:21:00.815Z,2.83
2022-11-16T05:23:46.425Z,2.53
2022-11-16T05:26:13.493Z,2.70
2022-11-16T05:28:40.537Z,2.87
2022-11-16T05:31:07.595Z,2.70
2022-11-16T05:33:34.655Z,2.80
2022-11-16T05:36:01.701Z,2.93
2022-11-16T05:38:28.746Z,2.63
2022-11-16T05:40:55.784Z,2.57
2022-11-16T05:43:22.822Z,2.87
2022-11-16T05:45:49.922Z,3.00
2022-11-16T05:48:16.962Z,2.77
2022-11-16T05:50:44.023Z,2.97
2022-11-16T05:53:11.122Z,3.10
2022-11-16T05:55:38.167Z,3.17
2022-11-16T05:58:05.216Z,3.03
2022-11-16T06:00:32.326Z,2.70
2022-11-16T06:02:59.507Z,3.03
2022-11-16T06:05:26.605Z,2.70
2022-11-16T06:07:53.657Z,3.03
2022-11-16T06:10:20.726Z,2.97
2022-11-16T06:12:47.788Z,3.13
2022-11-16T06:15:14.825Z,3.10
2022-11-16T06:17:41.893Z,2.80
2022-11-16T06:20:09.960Z,2.57
2022-11-16T06:22:37.160Z,3.10
2022-11-16T06:25:06.667Z,2.50
2022-11-16T06:27:33.760Z,2.90
2022-11-16T06:30:00.857Z,2.83
2022-11-16T06:32:27.974Z,2.87
2022-11-16T06:34:55.319Z,3.10
2022-11-16T06:37:22.402Z,3.00
2022-11-16T06:39:49.443Z,2.97
2022-11-16T06:42:16.555Z,3.13
2022-11-16T06:44:43.601Z,3.03
2022-11-16T06:47:10.654Z,3.00
2022-11-16T06:49:37.707Z,2.77
2022-11-16T06:52:04.775Z,2.80
2022-11-16T06:54:31.845Z,3.13
2022-11-16T06:56:58.914Z,2.57
2022-11-16T06:59:25.960Z,2.80
2022-11-16T07:01:53.055Z,3.17
2022-11-16T07:04:20.136Z,3.00
2022-11-16T07:06:47.606Z,2.80
2022-11-16T07:09:15.081Z,2.97
2022-11-16T07:11:42.373Z,2.87
2022-11-16T07:14:09.538Z,2.80
2022-11-16T07:16:36.814Z,3.17
2022-11-16T07:19:04.021Z,2.80
2022-11-16T07:21:31.141Z,2.90
2022-11-16T07:23:58.176Z,2.97
2022-11-16T07:26:25.215Z,2.97
2022-11-16T07:28:52.297Z,3.23
2022-11-16T07:31:19.431Z,3.07
2022-11-16T07:33:46.477Z,3.00
2022-11-16T07:36:14.990Z,3.10
2022-11-16T07:38:42.177Z,3.00
2022-11-16T07:41:11.215Z,3.10
2022-11-16T07:43:39.817Z,3.03
2022-11-16T07:49:01.543Z,3.37
2022-11-16T07:51:28.613Z,2.93
2022-11-16T07:53:55.964Z,2.97
2022-11-16T07:56:23.067Z,2.93
2022-11-16T07:58:50.235Z,3.13
2022-11-16T08:01:18.488Z,2.60
2022-11-16T08:03:46.541Z,3.20
2022-11-16T08:06:13.627Z,2.80
2022-11-16T08:08:40.756Z,2.83
2022-11-16T08:11:09.847Z,2.87
2022-11-16T08:13:38.056Z,2.80
2022-11-16T08:16:08.742Z,2.43
2022-11-16T08:18:36.777Z,3.00
2022-11-16T08:21:04.888Z,3.43
2022-11-16T08:23:32.247Z,3.10
2022-11-16T08:26:03.823Z,3.00
2022-11-16T08:28:31.582Z,3.13
2022-11-16T08:30:59.334Z,3.37
2022-11-16T08:33:27.142Z,2.80
2022-11-16T08:35:54.938Z,3.27
2022-11-16T08:38:22.046Z,3.00
2022-11-16T08:40:50.790Z,3.30
2022-11-16T08:43:17.869Z,3.30
2022-11-16T08:45:48.196Z,3.30
2022-11-16T08:48:15.428Z,3.67
2022-11-16T08:51:15.379Z,3.40
2022-11-16T08:53:29.546Z,3.47
2022-11-16T08:55:56.589Z,3.83
2022-11-16T08:58:23.628Z,3.40
2022-11-16T09:00:51.337Z,3.70
2022-11-16T09:03:18.401Z,3.80
2022-11-16T09:05:46.721Z,3.50
2022-11-16T09:08:13.759Z,3.57
2022-11-16T09:10:40.849Z,3.73
2022-11-16T09:13:07.908Z,3.50
2022-11-16T09:15:34.967Z,3.83
2022-11-16T09:18:02.017Z,4.27
2022-11-16T09:20:29.302Z,3.90
2022-11-16T09:22:56.381Z,3.67
2022-11-16T09:25:23.505Z,3.93
2022-11-16T09:27:50.548Z,3.90
2022-11-16T09:30:18.425Z,3.73
2022-11-16T09:32:45.507Z,3.73
2022-11-16T09:35:12.782Z,4.00
2022-11-16T09:37:39.826Z,3.87
2022-11-16T09:40:07.249Z,3.73
2022-11-16T09:42:37.042Z,3.87
2022-11-16T09:45:08.845Z,3.67
2022-11-16T09:47:39.089Z,3.30
2022-11-16T09:50:07.013Z,3.80
2022-11-16T09:52:37.434Z,3.67
2022-11-16T09:55:18.892Z,3.87
2022-11-16T09:57:47.714Z,3.10
2022-11-16T10:00:18.081Z,3.50
2022-11-16T10:02:47.287Z,3.07
2022-11-16T10:05:32.572Z,3.20
2022-11-16T10:08:03.713Z,3.23
2022-11-16T10:10:34.816Z,3.30
2022-11-16T10:13:25.154Z,3.50
2022-11-16T10:15:57.981Z,3.03
2022-11-16T10:18:37.000Z,3.20
2022-11-16T10:21:07.312Z,3.30
2022-11-16T10:23:40.299Z,3.30
2022-11-16T10:26:07.323Z,3.23
2022-11-16T10:28:49.144Z,3.43
2022-11-16T10:31:18.907Z,3.23
2022-11-16T10:33:47.361Z,2.87
2022-11-16T10:36:15.594Z,2.60
2022-11-16T10:38:43.689Z,2.93
2022-11-16T10:41:28.873Z,2.97
2022-11-16T10:43:57.111Z,2.77
2022-11-16T10:46:44.556Z,2.73
2022-11-16T10:49:17.681Z,2.60
2022-11-16T10:51:44.727Z,2.80
2022-11-16T10:54:15.801Z,2.77
2022-11-16T10:56:45.391Z,2.80
2022-11-16T10:59:13.841Z,2.70
2022-11-16T11:01:40.944Z,2.50
2022-11-16T11:04:19.003Z,2.50
2022-11-16T11:06:46.778Z,2.40
2022-11-16T11:09:25.845Z,2.10
2022-11-16T11:12:30.505Z,2.03
2022-11-16T11:15:00.290Z,2.53
2022-11-16T11:17:27.817Z,2.30
2022-11-16T11:20:01.982Z,2.00
2022-11-16T11:22:29.193Z,2.20
2022-11-16T11:24:56.559Z,1.83
2022-11-16T11:27:29.533Z,1.90
2022-11-16T11:29:58.647Z,1.83
2022-11-16T11:32:33.570Z,2.00
2022-11-16T11:35:01.554Z,1.93
2022-11-16T11:37:33.943Z,2.10
2022-11-16T11:40:06.901Z,2.10
2022-11-16T11:42:34.535Z,1.93
2022-11-16T11:45:05.865Z,2.10
2022-11-16T11:47:57.996Z,2.20
2022-11-16T11:50:37.647Z,1.93
2022-11-16T11:53:16.810Z,1.90
2022-11-16T11:55:43.844Z,2.07
2022-11-16T11:58:17.232Z,2.00
2022-11-16T12:01:04.526Z,2.03
2022-11-16T12:03:31.693Z,2.00
2022-11-16T12:06:09.753Z,1.90
2022-11-16T12:08:42.599Z,1.97
2022-11-16T12:11:15.958Z,2.03
2022-11-16T12:13:48.867Z,1.80
2022-11-16T12:16:28.054Z,2.03
2022-11-16T12:19:01.006Z,2.10
2022-11-16T12:21:35.581Z,2.30
2022-11-16T12:24:11.093Z,2.10
2022-11-16T12:26:38.200Z,2.07
2022-11-16T12:29:12.522Z,2.00
2022-11-16T12:31:45.525Z,2.00
2022-11-16T12:34:32.933Z,2.10
2022-11-16T12:37:11.395Z,2.10
2022-11-16T12:39:44.962Z,2.30
2022-11-16T12:42:18.095Z,2.30
2022-11-16T12:44:55.635Z,2.63
2022-11-16T12:47:47.346Z,2.50
2022-11-16T12:50:17.144Z,2.40
2022-11-16T12:52:53.156Z,2.30
2022-11-16T12:55:30.106Z,2.40
2022-11-16T12:58:05.383Z,2.70
2022-11-16T13:00:53.179Z,2.47
2022-11-16T13:03:35.908Z,2.40
2022-11-16T13:06:05.377Z,2.50
2022-11-16T13:08:47.330Z,2.80
2022-11-16T13:11:16.529Z,2.60
2022-11-16T13:13:49.598Z,2.60
2022-11-16T13:16:20.485Z,2.53
2022-11-16T13:18:47.793Z,2.53
2022-11-16T13:21:17.652Z,2.77
2022-11-16T13:23:50.409Z,2.77
2022-11-16T13:26:27.646Z,2.87
2022-11-16T13:28:59.220Z,2.90
2022-11-16T13:31:32.057Z,2.90
2022-11-16T13:34:13.763Z,2.87
2022-11-16T13:36:45.105Z,3.07
2022-11-16T13:39:22.530Z,3.47
2022-11-16T13:41:51.128Z,2.93
2022-11-16T13:44:18.787Z,3.43
2022-11-16T13:46:56.574Z,3.73
2022-11-16T13:49:24.086Z,3.80
2022-11-16T13:51:52.810Z,3.43
2022-11-16T13:54:45.677Z,3.60
2022-11-16T13:57:33.365Z,3.40
2022-11-16T14:00:04.887Z,3.83
2022-11-16T14:02:41.470Z,3.70
2022-11-16T14:05:37.758Z,3.53
2022-11-16T14:08:19.864Z,3.77
2022-11-16T14:10:52.635Z,3.57
2022-11-16T14:13:38.379Z,3.90
2022-11-16T14:16:21.450Z,3.60
2022-11-16T14:18:59.731Z,3.67
2022-11-16T14:21:26.827Z,3.63
2022-11-16T14:23:53.850Z,4.07
2022-11-16T14:26:32.995Z,4.07
2022-11-16T14:29:20.569Z,4.20
2022-11-16T14:31:50.443Z,4.57
2022-11-16T14:34:19.508Z,4.23
2022-11-16T14:36:47.569Z,4.67
2022-11-16T14:39:24.285Z,3.97
2022-11-16T14:41:51.802Z,4.30
2022-11-16T14:44:21.676Z,4.23
2022-11-16T14:46:49.038Z,4.53
2022-11-16T14:49:17.589Z,4.57
2022-11-16T14:51:47.312Z,4.53
2022-11-16T14:54:14.399Z,4.63
2022-11-16T14:57:01.085Z,4.90
2022-11-16T14:59:28.848Z,5.07
2022-11-16T15:01:55.976Z,5.30
2022-11-16T15:04:24.778Z,5.60
2022-11-16T15:06:54.772Z,5.90
2022-11-16T15:09:25.091Z,5.93
2022-11-16T15:12:11.276Z,6.10
2022-11-16T15:14:41.205Z,7.03
2022-11-16T15:17:09.774Z,6.23
2022-11-16T15:19:36.864Z,6.60
2022-11-16T15:22:05.251Z,6.40
2022-11-16T15:24:33.447Z,6.73
2022-11-16T15:27:11.197Z,6.67
2022-11-16T15:29:38.688Z,6.40
2022-11-16T15:32:07.260Z,6.47
2022-11-16T15:34:34.362Z,6.40
2022-11-16T15:37:01.518Z,5.87
2022-11-16T15:39:31.077Z,5.67
2022-11-16T15:42:03.489Z,6.70
2022-11-16T15:44:31.424Z,5.60
2022-11-16T15:46:58.895Z,5.90
2022-11-16T15:49:29.307Z,6.00
2022-11-16T15:51:57.657Z,6.13
2022-11-16T15:54:28.651Z,5.87
2022-11-16T15:56:56.956Z,5.90
2022-11-16T15:59:32.872Z,5.30
2022-11-16T16:01:59.967Z,5.97
2022-11-16T16:04:27.451Z,6.23
2022-11-16T16:06:56.146Z,5.37
2022-11-16T16:09:27.825Z,5.80
2022-11-16T16:11:56.176Z,5.53
2022-11-16T16:14:24.518Z,5.77
2022-11-16T16:16:53.350Z,5.80
2022-11-16T16:19:38.706Z,5.40
2022-11-16T16:22:06.859Z,5.90
2022-11-16T16:24:44.220Z,5.70
2022-11-16T16:27:14.093Z,6.00
2022-11-16T16:29:41.370Z,6.73
2022-11-16T16:32:16.924Z,6.47
2022-11-16T16:34:44.047Z,6.67
2022-11-16T16:37:12.798Z,6.50
2022-11-16T16:39:40.947Z,5.90
2022-11-16T16:42:13.561Z,5.83
2022-11-16T16:44:41.239Z,6.10
2022-11-16T16:47:08.674Z,6.47
2022-11-16T16:49:35.960Z,6.40
2022-11-16T16:52:03.254Z,5.97
2022-11-16T16:54:30.342Z,6.57
2022-11-16T16:56:58.011Z,6.63
2022-11-16T16:59:25.514Z,6.30
2022-11-16T17:01:52.651Z,6.40
2022-11-16T17:04:19.934Z,5.90
2022-11-16T17:06:47.961Z,6.17
2022-11-16T17:09:15.069Z,5.97
2022-11-16T17:11:42.133Z,6.10
2022-11-16T17:14:09.240Z,5.37
2022-11-16T17:16:36.787Z,5.40
2022-11-16T17:19:04.293Z,5.93
2022-11-16T17:21:31.617Z,5.63
2022-11-16T17:23:58.713Z,6.17
2022-11-16T17:26:29.283Z,5.13
2022-11-16T17:28:57.138Z,5.33
2022-11-16T17:31:24.606Z,5.97
2022-11-16T17:33:51.719Z,5.53
2022-11-16T17:36:18.802Z,5.57
2022-11-16T17:38:46.131Z,5.30
2022-11-16T17:41:14.744Z,5.90
2022-11-16T17:43:43.044Z,5.63
2022-11-16T17:46:11.382Z,6.00
2022-11-16T17:48:38.930Z,5.80
2022-11-16T17:51:06.179Z,6.20
2022-11-16T17:53:35.122Z,6.20
2022-11-16T17:56:03.136Z,5.60
2022-11-16T17:58:30.799Z,6.60
2022-11-16T18:00:58.101Z,7.40
2022-11-16T18:03:25.293Z,7.37
2022-11-16T18:05:52.450Z,7.23
2022-11-16T18:08:19.522Z,6.93
2022-11-16T18:10:46.604Z,6.67
2022-11-16T18:13:13.754Z,6.60
2022-11-16T18:15:42.568Z,6.23
2022-11-16T18:18:09.951Z,6.37
2022-11-16T18:20:37.836Z,6.00
2022-11-16T18:23:05.363Z,5.50
2022-11-16T18:25:36.806Z,5.40
2022-11-16T18:28:03.936Z,4.40
2022-11-16T18:30:31.018Z,4.60
2022-11-16T18:32:58.105Z,4.43
2022-11-16T18:35:25.164Z,4.77
2022-11-16T18:37:52.270Z,4.43
2022-11-16T18:40:19.443Z,4.50
2022-11-16T18:42:46.637Z,4.40
2022-11-16T18:45:13.844Z,4.03
2022-11-16T18:47:40.915Z,3.60
2022-11-16T18:50:18.086Z,3.90
2022-11-16T18:52:47.359Z,3.23
2022-11-16T18:55:14.515Z,3.10
2022-11-16T18:57:41.642Z,3.30
2022-11-16T19:00:09.785Z,2.90
2022-11-16T19:02:36.914Z,3.20
2022-11-16T19:05:04.115Z,2.97
2022-11-16T19:07:31.278Z,3.20
2022-11-16T19:09:58.391Z,3.07
2022-11-16T19:12:25.549Z,2.80
2022-11-16T19:14:52.668Z,2.60
2022-11-16T19:17:20.950Z,2.60
2022-11-16T19:19:48.070Z,2.07
2022-11-16T19:22:15.172Z,2.50
2022-11-16T19:24:42.221Z,2.40
2022-11-16T19:27:09.316Z,2.53
2022-11-16T19:29:36.443Z,1.90
2022-11-16T19:32:03.561Z,2.07
2022-11-16T19:34:33.417Z,2.10
2022-11-16T19:37:00.760Z,2.40
2022-11-16T19:39:27.827Z,1.97
2022-11-16T19:41:54.914Z,1.83
2022-11-16T19:44:21.978Z,2.10
2022-11-16T19:46:49.068Z,1.60
2022-11-16T19:49:20.200Z,1.60
2022-11-16T19:51:47.485Z,1.97
2022-11-16T19:54:14.891Z,1.83
2022-11-16T19:56:42.370Z,2.40
2022-11-16T19:59:09.447Z,1.93
2022-11-16T20:01:36.612Z,1.70
2022-11-16T20:04:03.759Z,1.60
2022-11-16T20:06:30.909Z,1.80
2022-11-16T20:09:00.577Z,1.73
2022-11-16T20:11:28.362Z,1.80
2022-11-16T20:13:56.108Z,1.93
2022-11-16T20:16:24.457Z,1.80
2022-11-16T20:18:52.312Z,1.67
2022-11-16T20:21:23.144Z,1.50
2022-11-16T20:23:53.751Z,1.60
2022-11-16T20:26:21.466Z,1.70
2022-11-16T20:28:51.026Z,1.87
2022-11-16T20:31:18.677Z,1.63
2022-11-16T20:33:52.614Z,1.70
2022-11-16T20:36:20.033Z,1.70
2022-11-16T20:38:47.122Z,1.90
2022-11-16T20:41:15.469Z,2.00
2022-11-16T20:43:43.303Z,1.63
2022-11-16T20:46:11.340Z,1.77
2022-11-16T20:48:39.139Z,1.70
2022-11-16T20:51:06.396Z,1.40
2022-11-16T20:53:34.178Z,1.70
2022-11-16T20:56:04.711Z,1.80
2022-11-16T20:58:32.287Z,2.00
2022-11-16T21:01:11.104Z,1.97
2022-11-16T21:03:38.543Z,2.07
2022-11-16T21:06:08.777Z,1.70
2022-11-16T21:08:36.470Z,1.90
2022-11-16T21:11:09.797Z,1.57
2022-11-16T21:13:55.637Z,1.83
2022-11-16T21:16:22.833Z,1.63
2022-11-16T21:18:49.920Z,1.77
2022-11-16T21:21:16.961Z,1.77
2022-11-16T21:23:51.202Z,1.80
2022-11-16T21:26:19.794Z,1.40
2022-11-16T21:28:46.933Z,1.87
2022-11-16T21:31:15.604Z,1.60
2022-11-16T21:33:43.896Z,1.63
2022-11-16T21:36:12.483Z,1.70
2022-11-16T21:38:39.803Z,2.00
2022-11-16T21:41:07.467Z,1.63
2022-11-16T21:43:38.024Z,1.90
2022-11-16T21:46:06.524Z,1.90
2022-11-16T21:48:34.296Z,1.83
2022-11-16T21:51:08.658Z,1.83
2022-11-16T21:53:36.329Z,1.60
2022-11-16T21:56:04.444Z,1.60
2022-11-16T21:58:31.657Z,1.57
2022-11-16T22:00:59.601Z,1.90
2022-11-16T22:03:27.793Z,1.90
2022-11-16T22:06:14.511Z,1.93
2022-11-16T22:08:41.600Z,1.80
2022-11-16T22:11:09.488Z,1.97
2022-11-16T22:13:37.312Z,1.90
2022-11-16T22:16:05.485Z,2.00
2022-11-16T22:18:33.006Z,1.90
2022-11-16T22:21:00.737Z,2.17
2022-11-16T22:23:28.101Z,1.63
2022-11-16T22:25:55.389Z,2.00
2022-11-16T22:28:22.546Z,1.83
2022-11-16T22:30:51.966Z,2.10
2022-11-16T22:33:19.357Z,1.70
2022-11-16T22:35:47.662Z,2.10
2022-11-16T22:38:14.713Z,1.90
2022-11-16T22:40:41.749Z,2.07
2022-11-16T22:43:08.830Z,1.70
2022-11-16T22:45:35.880Z,1.90
2022-11-16T22:48:02.942Z,1.70
2022-11-16T22:50:29.978Z,1.97
2022-11-16T22:52:59.069Z,1.90
2022-11-16T22:55:26.161Z,1.70
2022-11-16T22:57:53.226Z,1.97
2022-11-16T23:00:20.437Z,1.90
2022-11-16T23:02:47.550Z,2.10
2022-11-16T23:05:14.696Z,2.30
2022-11-16T23:07:43.849Z,1.70
2022-11-16T23:10:11.112Z,1.90
2022-11-16T23:12:56.940Z,1.87
2022-11-16T23:15:48.704Z,2.00
2022-11-16T23:18:16.035Z,2.03
2022-11-16T23:21:01.928Z,1.93
2022-11-16T23:23:47.815Z,2.20
2022-11-16T23:26:42.083Z,1.87
2022-11-16T23:29:10.490Z,1.63
2022-11-16T23:31:38.121Z,1.90
2022-11-16T23:34:05.376Z,2.10
2022-11-16T23:36:32.450Z,2.00
2022-11-16T23:38:59.524Z,1.70
2022-11-16T23:41:45.126Z,1.80
2022-11-16T23:44:12.193Z,1.80
2022-11-16T23:46:39.272Z,1.93
2022-11-16T23:49:06.361Z,1.70
2022-11-16T23:51:33.416Z,1.80
2022-11-16T23:54:00.502Z,2.17
2022-11-16T23:56:28.155Z,2.00
2022-11-16T23:58:58.134Z,1.87
